Terminal Aerodrome Forecast
Issued by NWS

Home | Current Version | Previous Version | Text Only | Print | Product List | Glossary On
Versions: 1 2 3 4 5 6 7 8 9 10 11 12 13 14 15 16 17 18
000
FTUS43 KGRR 290500
TAFLAN
TAF
KLAN 290540Z 2906/3006 16010KT 6SM -SNPL OVC035
     FM290800 16009KT 6SM -FZRAPL OVC035
     FM291000 15009KT 6SM BR OVC035
     FM291200 16011KT P6SM BKN040
     FM291800 18010G19KT P6SM -DZ OVC025=

USA.gov is the U.S. government's official web portal to all federal, state and local government web resources and services.